PWSweather.com
Personal Weather Stations
Station Observations
LAKENACI1
Oak Shores Lake Nacimiento, Bradley, CA 93426

Oak Shores Lake NacimientoBradley, CA 93426

Lat: 35.749704, Lon: -120.988075

Elevation: 811

Station Type: Rain wise MK-III

https://www.rainwise.net/weather/JMConstructionOS

Latest ConditionsUpdated 9:34:00 PM PDT Friday, Aug 17, 2018
Currently Today's Max Today's Min Today's Average
Temperature 81.5°F27.5°C 102.4°F39.1°C 59.2°F15.1°C 80.0°F26.7°C
Dew Point 47.9°F8.8°C 59.7°F15.4°C 47.9°F8.8°C 53.2°F11.8°C
Winds 2.5 mph NE4.0 kmh NE 6.3 mph -10.1 kmh - - 1.3 mph 2.1 kmh
Wind Gusts 3.7 mph6.0 kmh 10.5 mph16.9 kmh - -
Humidity 31% 77% 22% 45%
Pressure 29.16 in987.5 mb 29.22 in989.5 mb 29.10 in985.4 mb -
Hour Temp Dew Point Humidity Winds Wind Gusts Pressure Precip Precip Rate Daily Precip Total
09:34 PM 81.5°F27.5°C 47.9°F8.8°C 31% 2.5 mph NE4.0 kmh NE 3.7 mph6.0 kmh 29.16 in987.5 mb 0.00 in0.0 mm 0.00 in0.0 mm 0.00 in0.0 mm
09:29 PM 81.9°F27.7°C 49.1°F9.5°C 32% 0.3 mph NNE0.5 kmh NNE 1.6 mph2.6 kmh 29.15 in987.1 mb 0.00 in0.0 mm 0.00 in0.0 mm 0.00 in0.0 mm
09:24 PM 82.2°F27.9°C 48.5°F9.2°C 31% 2.3 mph NNE3.7 kmh NNE 3.6 mph5.8 kmh 29.15 in987.1 mb 0.00 in0.0 mm 0.00 in0.0 mm 0.00 in0.0 mm
09:19 PM 82.6°F28.1°C 48.9°F9.4°C 31% 3.4 mph ENE5.5 kmh ENE 4.4 mph7.1 kmh 29.15 in987.1 mb 0.00 in0.0 mm 0.00 in0.0 mm 0.00 in0.0 mm
09:14 PM 83.0°F28.3°C 50.1°F10.1°C 32% 4.1 mph ENE6.6 kmh ENE 6.0 mph9.7 kmh 29.15 in987.1 mb 0.00 in0.0 mm 0.00 in0.0 mm 0.00 in0.0 mm
09:09 PM 83.5°F28.6°C 49.7°F9.8°C 31% 1.3 mph ENE2.1 kmh ENE 2.5 mph4.0 kmh 29.14 in986.8 mb 0.00 in0.0 mm 0.00 in0.0 mm 0.00 in0.0 mm
09:04 PM 84.0°F28.9°C 50.1°F10.1°C 31% 1.7 mph NE2.7 kmh NE 2.8 mph4.5 kmh 29.14 in986.8 mb 0.00 in0.0 mm 0.00 in0.0 mm 0.00 in0.0 mm
08:59 PM 84.5°F29.2°C 50.5°F10.3°C 31% 3.4 mph ENE5.5 kmh ENE 4.7 mph7.6 kmh 29.14 in986.8 mb 0.00 in0.0 mm 0.00 in0.0 mm 0.00 in0.0 mm
08:54 PM 85.0°F29.4°C 50.9°F10.5°C 31% 2.4 mph ENE3.9 kmh ENE 3.3 mph5.3 kmh 29.13 in986.5 mb 0.00 in0.0 mm 0.00 in0.0 mm 0.00 in0.0 mm
08:49 PM 85.0°F29.4°C 50.9°F10.5°C 31% 2.6 mph ENE4.2 kmh ENE 3.1 mph5.0 kmh 29.13 in986.5 mb 0.00 in0.0 mm 0.00 in0.0 mm 0.00 in0.0 mm
08:44 PM 85.2°F29.6°C 51.1°F10.6°C 31% 2.9 mph ENE4.7 kmh ENE 3.5 mph5.6 kmh 29.13 in986.5 mb 0.00 in0.0 mm 0.00 in0.0 mm 0.00 in0.0 mm
08:39 PM 85.5°F29.7°C 50.5°F10.3°C 30% 0.8 mph NNE1.3 kmh NNE 1.9 mph3.1 kmh 29.13 in986.5 mb 0.00 in0.0 mm 0.00 in0.0 mm 0.00 in0.0 mm
08:34 PM 86.1°F30.1°C 50.1°F10.1°C 29% 1.5 mph NNE2.4 kmh NNE 2.4 mph3.9 kmh 29.13 in986.5 mb 0.00 in0.0 mm 0.00 in0.0 mm 0.00 in0.0 mm
08:29 PM 86.7°F30.4°C 51.5°F10.8°C 30% 0.6 mph NNW1.0 kmh NNW 1.5 mph2.4 kmh 29.13 in986.5 mb 0.00 in0.0 mm 0.00 in0.0 mm 0.00 in0.0 mm
08:24 PM 87.1°F30.6°C 50.0°F10.0°C 28% 1.1 mph NNW1.8 kmh NNW 1.5 mph2.4 kmh 29.12 in986.1 mb 0.00 in0.0 mm 0.00 in0.0 mm 0.00 in0.0 mm
08:19 PM 87.4°F30.8°C 50.3°F10.2°C 28% 0.5 mph NNW0.8 kmh NNW 1.1 mph1.8 kmh 29.12 in986.1 mb 0.00 in0.0 mm 0.00 in0.0 mm 0.00 in0.0 mm
08:14 PM 87.5°F30.8°C 50.3°F10.2°C 28% 1.9 mph NNW3.1 kmh NNW 2.8 mph4.5 kmh 29.12 in986.1 mb 0.00 in0.0 mm 0.00 in0.0 mm 0.00 in0.0 mm
08:09 PM 87.7°F30.9°C 50.5°F10.3°C 28% 0.4 mph NNE0.6 kmh NNE 1.0 mph1.6 kmh 29.12 in986.1 mb 0.00 in0.0 mm 0.00 in0.0 mm 0.00 in0.0 mm
08:04 PM 88.2°F31.2°C 50.9°F10.5°C 28% 1.0 mph NNE1.6 kmh NNE 1.8 mph2.9 kmh 29.11 in985.8 mb 0.00 in0.0 mm 0.00 in0.0 mm 0.00 in0.0 mm
07:59 PM 88.7°F31.5°C 52.3°F11.3°C 29% 0.9 mph NNE1.4 kmh NNE 2.5 mph4.0 kmh 29.12 in986.1 mb 0.00 in0.0 mm 0.00 in0.0 mm 0.00 in0.0 mm
07:54 PM 89.1°F31.7°C 52.7°F11.5°C 29% 0.3 mph WNW0.5 kmh WNW 1.5 mph2.4 kmh 29.11 in985.8 mb 0.00 in0.0 mm 0.00 in0.0 mm 0.00 in0.0 mm
07:49 PM 89.5°F31.9°C 52.0°F11.1°C 28% 1.5 mph WSW2.4 kmh WSW 3.1 mph5.0 kmh 29.11 in985.8 mb 0.00 in0.0 mm 0.00 in0.0 mm 0.00 in0.0 mm
07:44 PM 90.0°F32.2°C 53.4°F11.9°C 29% 1.4 mph WNW2.3 kmh WNW 2.5 mph4.0 kmh 29.11 in985.8 mb 0.00 in0.0 mm 0.00 in0.0 mm 0.00 in0.0 mm
07:39 PM 90.4°F32.4°C 53.8°F12.1°C 29% 0.2 mph WNW0.3 kmh WNW 1.1 mph1.8 kmh 29.11 in985.8 mb 0.00 in0.0 mm 0.00 in0.0 mm 0.00 in0.0 mm
07:34 PM 90.6°F32.6°C 53.9°F12.2°C 29% 4.4 mph NW7.1 kmh NW 7.0 mph11.3 kmh 29.11 in985.8 mb 0.00 in0.0 mm 0.00 in0.0 mm 0.00 in0.0 mm
07:29 PM 90.7°F32.6°C 54.0°F12.2°C 29% 0.7 mph SW1.1 kmh SW 2.3 mph3.7 kmh 29.11 in985.8 mb 0.00 in0.0 mm 0.00 in0.0 mm 0.00 in0.0 mm
07:24 PM 90.9°F32.7°C 53.2°F11.8°C 28% 1.8 mph NW2.9 kmh NW 4.1 mph6.6 kmh 29.10 in985.4 mb 0.00 in0.0 mm 0.00 in0.0 mm 0.00 in0.0 mm
07:19 PM 91.1°F32.8°C 53.4°F11.9°C 28% 3.0 mph WSW4.8 kmh WSW 6.1 mph9.8 kmh 29.10 in985.4 mb 0.00 in0.0 mm 0.00 in0.0 mm 0.00 in0.0 mm
07:14 PM 91.2°F32.9°C 53.5°F11.9°C 28% 4.6 mph SW7.4 kmh SW 7.2 mph11.6 kmh 29.10 in985.4 mb 0.00 in0.0 mm 0.00 in0.0 mm 0.00 in0.0 mm
07:09 PM 91.4°F33.0°C 52.7°F11.5°C 27% 2.9 mph NW4.7 kmh NW 6.2 mph10.0 kmh 29.10 in985.4 mb 0.00 in0.0 mm 0.00 in0.0 mm 0.00 in0.0 mm
07:04 PM 91.7°F33.2°C 51.9°F11.1°C 26% 1.6 mph ESE2.6 kmh ESE 4.0 mph6.4 kmh 29.10 in985.4 mb 0.00 in0.0 mm 0.00 in0.0 mm 0.00 in0.0 mm
06:59 PM 92.2°F33.4°C 52.3°F11.3°C 26% 1.9 mph WNW3.1 kmh WNW 4.4 mph7.1 kmh 29.10 in985.4 mb 0.00 in0.0 mm 0.00 in0.0 mm 0.00 in0.0 mm
06:54 PM 92.8°F33.8°C 52.8°F11.6°C 26% 1.3 mph WSW2.1 kmh WSW 4.0 mph6.4 kmh 29.10 in985.4 mb 0.00 in0.0 mm 0.00 in0.0 mm 0.00 in0.0 mm
06:49 PM 93.0°F33.9°C 53.0°F11.7°C 26% 1.7 mph N2.7 kmh N 5.0 mph8.0 kmh 29.10 in985.4 mb 0.00 in0.0 mm 0.00 in0.0 mm 0.00 in0.0 mm
06:44 PM 93.8°F34.3°C 52.6°F11.4°C 25% 2.4 mph NE3.9 kmh NE 4.4 mph7.1 kmh 29.10 in985.4 mb 0.00 in0.0 mm 0.00 in0.0 mm 0.00 in0.0 mm
06:39 PM 94.3°F34.6°C 53.0°F11.7°C 25% 1.1 mph SSE1.8 kmh SSE 3.1 mph5.0 kmh 29.11 in985.8 mb 0.00 in0.0 mm 0.00 in0.0 mm 0.00 in0.0 mm
06:34 PM 94.3°F34.6°C 53.0°F11.7°C 25% 2.1 mph NNW3.4 kmh NNW 4.7 mph7.6 kmh 29.11 in985.8 mb 0.00 in0.0 mm 0.00 in0.0 mm 0.00 in0.0 mm
06:29 PM 95.0°F35.0°C 52.5°F11.4°C 24% 1.8 mph W2.9 kmh W 4.4 mph7.1 kmh 29.10 in985.4 mb 0.00 in0.0 mm 0.00 in0.0 mm 0.00 in0.0 mm
06:24 PM 95.6°F35.3°C 54.1°F12.3°C 25% 2.0 mph WSW3.2 kmh WSW 4.2 mph6.8 kmh 29.11 in985.8 mb 0.00 in0.0 mm 0.00 in0.0 mm 0.00 in0.0 mm
06:19 PM 96.0°F35.6°C 54.4°F12.4°C 25% 0.7 mph SW1.1 kmh SW 2.3 mph3.7 kmh 29.11 in985.8 mb 0.00 in0.0 mm 0.00 in0.0 mm 0.00 in0.0 mm
06:14 PM 96.1°F35.6°C 54.5°F12.5°C 25% 1.1 mph NNE1.8 kmh NNE 2.0 mph3.2 kmh 29.10 in985.4 mb 0.00 in0.0 mm 0.00 in0.0 mm 0.00 in0.0 mm
06:09 PM 96.4°F35.8°C 54.8°F12.7°C 25% 1.5 mph E2.4 kmh E 2.9 mph4.7 kmh 29.10 in985.4 mb 0.00 in0.0 mm 0.00 in0.0 mm 0.00 in0.0 mm
06:04 PM 96.4°F35.8°C 53.7°F12.1°C 24% 0.6 mph SW1.0 kmh SW 2.5 mph4.0 kmh 29.11 in985.8 mb 0.00 in0.0 mm 0.00 in0.0 mm 0.00 in0.0 mm
05:59 PM 96.6°F35.9°C 55.0°F12.8°C 25% 1.1 mph NNW1.8 kmh NNW 2.5 mph4.0 kmh 29.11 in985.8 mb 0.00 in0.0 mm 0.00 in0.0 mm 0.00 in0.0 mm
05:54 PM 96.9°F36.1°C 54.1°F12.3°C 24% 1.7 mph NNW2.7 kmh NNW 4.1 mph6.6 kmh 29.10 in985.4 mb 0.00 in0.0 mm 0.00 in0.0 mm 0.00 in0.0 mm
05:49 PM 96.8°F36.0°C 54.0°F12.2°C 24% 2.1 mph ESE3.4 kmh ESE 4.1 mph6.6 kmh 29.10 in985.4 mb 0.00 in0.0 mm 0.00 in0.0 mm 0.00 in0.0 mm
05:44 PM 97.1°F36.2°C 55.4°F13.0°C 25% 1.4 mph WSW2.3 kmh WSW 4.2 mph6.8 kmh 29.10 in985.4 mb 0.00 in0.0 mm 0.00 in0.0 mm 0.00 in0.0 mm
05:39 PM 97.2°F36.2°C 54.3°F12.4°C 24% 0.6 mph SSE1.0 kmh SSE 2.0 mph3.2 kmh 29.11 in985.8 mb 0.00 in0.0 mm 0.00 in0.0 mm 0.00 in0.0 mm
05:34 PM 96.8°F36.0°C 54.0°F12.2°C 24% 0.7 mph SSW1.1 kmh SSW 2.8 mph4.5 kmh 29.11 in985.8 mb 0.00 in0.0 mm 0.00 in0.0 mm 0.00 in0.0 mm
05:29 PM 96.7°F35.9°C 55.0°F12.8°C 25% 1.8 mph E2.9 kmh E 3.7 mph6.0 kmh 29.10 in985.4 mb 0.00 in0.0 mm 0.00 in0.0 mm 0.00 in0.0 mm
05:24 PM 96.7°F35.9°C 55.0°F12.8°C 25% 0.3 mph ENE0.5 kmh ENE 1.2 mph1.9 kmh 29.11 in985.8 mb 0.00 in0.0 mm 0.00 in0.0 mm 0.00 in0.0 mm
05:19 PM 96.7°F35.9°C 55.0°F12.8°C 25% 3.8 mph S6.1 kmh S 6.6 mph10.6 kmh 29.10 in985.4 mb 0.00 in0.0 mm 0.00 in0.0 mm 0.00 in0.0 mm
05:14 PM 97.3°F36.3°C 55.5°F13.1°C 25% 2.2 mph SW3.5 kmh SW 5.5 mph8.9 kmh 29.10 in985.4 mb 0.00 in0.0 mm 0.00 in0.0 mm 0.00 in0.0 mm
05:09 PM 97.5°F36.4°C 54.6°F12.6°C 24% 2.3 mph S3.7 kmh S 4.4 mph7.1 kmh 29.10 in985.4 mb 0.00 in0.0 mm 0.00 in0.0 mm 0.00 in0.0 mm
05:04 PM 97.7°F36.5°C 55.9°F13.3°C 25% 2.6 mph W4.2 kmh W 5.6 mph9.0 kmh 29.10 in985.4 mb 0.00 in0.0 mm 0.00 in0.0 mm 0.00 in0.0 mm
04:59 PM 98.2°F36.8°C 55.2°F12.9°C 24% 3.5 mph N5.6 kmh N 7.7 mph12.4 kmh 29.10 in985.4 mb 0.00 in0.0 mm 0.00 in0.0 mm 0.00 in0.0 mm
04:54 PM 98.5°F36.9°C 55.4°F13.0°C 24% 1.9 mph WSW3.1 kmh WSW 4.5 mph7.2 kmh 29.11 in985.8 mb 0.00 in0.0 mm 0.00 in0.0 mm 0.00 in0.0 mm
04:49 PM 98.9°F37.2°C 55.7°F13.2°C 24% 3.6 mph SW5.8 kmh SW 7.1 mph11.4 kmh 29.11 in985.8 mb 0.00 in0.0 mm 0.00 in0.0 mm 0.00 in0.0 mm
04:44 PM 99.0°F37.2°C 55.8°F13.2°C 24% 1.6 mph S2.6 kmh S 4.9 mph7.9 kmh 29.10 in985.4 mb 0.00 in0.0 mm 0.00 in0.0 mm 0.00 in0.0 mm
04:39 PM 99.0°F37.2°C 55.8°F13.2°C 24% 1.9 mph SSE3.1 kmh SSE 4.4 mph7.1 kmh 29.11 in985.8 mb 0.00 in0.0 mm 0.00 in0.0 mm 0.00 in0.0 mm
04:34 PM 99.0°F37.2°C 55.8°F13.2°C 24% 2.7 mph W4.3 kmh W 6.3 mph10.1 kmh 29.11 in985.8 mb 0.00 in0.0 mm 0.00 in0.0 mm 0.00 in0.0 mm
04:29 PM 98.5°F36.9°C 56.5°F13.6°C 25% 1.6 mph NNW2.6 kmh NNW 4.5 mph7.2 kmh 29.11 in985.8 mb 0.00 in0.0 mm 0.00 in0.0 mm 0.00 in0.0 mm
04:24 PM 98.2°F36.8°C 56.3°F13.5°C 25% 3.4 mph NNW5.5 kmh NNW 6.5 mph10.5 kmh 29.11 in985.8 mb 0.00 in0.0 mm 0.00 in0.0 mm 0.00 in0.0 mm
04:19 PM 98.0°F36.7°C 56.1°F13.4°C 25% 3.1 mph WNW5.0 kmh WNW 7.8 mph12.6 kmh 29.11 in985.8 mb 0.00 in0.0 mm 0.00 in0.0 mm 0.00 in0.0 mm
04:14 PM 97.5°F36.4°C 54.6°F12.6°C 24% 3.4 mph WSW5.5 kmh WSW 7.7 mph12.4 kmh 29.11 in985.8 mb 0.00 in0.0 mm 0.00 in0.0 mm 0.00 in0.0 mm
04:09 PM 97.7°F36.5°C 55.9°F13.3°C 25% 5.9 mph WSW9.5 kmh WSW 9.4 mph15.1 kmh 29.11 in985.8 mb 0.00 in0.0 mm 0.00 in0.0 mm 0.00 in0.0 mm
04:04 PM 97.8°F36.6°C 56.0°F13.3°C 25% 3.6 mph W5.8 kmh W 8.7 mph14.0 kmh 29.11 in985.8 mb 0.00 in0.0 mm 0.00 in0.0 mm 0.00 in0.0 mm
03:59 PM 97.7°F36.5°C 55.9°F13.3°C 25% 4.1 mph W6.6 kmh W 7.5 mph12.1 kmh 29.11 in985.8 mb 0.00 in0.0 mm 0.00 in0.0 mm 0.00 in0.0 mm
03:54 PM 98.3°F36.8°C 55.2°F12.9°C 24% 6.3 mph WSW10.1 kmh WSW 10.5 mph16.9 kmh 29.11 in985.8 mb 0.00 in0.0 mm 0.00 in0.0 mm 0.00 in0.0 mm
03:49 PM 99.3°F37.4°C 54.9°F12.7°C 23% 5.4 mph WSW8.7 kmh WSW 9.1 mph14.6 kmh 29.12 in986.1 mb 0.00 in0.0 mm 0.00 in0.0 mm 0.00 in0.0 mm
03:44 PM 99.2°F37.3°C 56.0°F13.3°C 24% 2.2 mph NW3.5 kmh NW 5.1 mph8.2 kmh 29.12 in986.1 mb 0.00 in0.0 mm 0.00 in0.0 mm 0.00 in0.0 mm
03:39 PM 98.8°F37.1°C 55.7°F13.2°C 24% 2.6 mph W4.2 kmh W 7.5 mph12.1 kmh 29.12 in986.1 mb 0.00 in0.0 mm 0.00 in0.0 mm 0.00 in0.0 mm
03:34 PM 98.9°F37.2°C 55.7°F13.2°C 24% 2.8 mph NW4.5 kmh NW 6.3 mph10.1 kmh 29.12 in986.1 mb 0.00 in0.0 mm 0.00 in0.0 mm 0.00 in0.0 mm
03:29 PM 99.0°F37.2°C 55.8°F13.2°C 24% 4.4 mph W7.1 kmh W 8.0 mph12.9 kmh 29.12 in986.1 mb 0.00 in0.0 mm 0.00 in0.0 mm 0.00 in0.0 mm
03:24 PM 99.5°F37.5°C 56.2°F13.4°C 24% 6.0 mph W9.7 kmh W 9.2 mph14.8 kmh 29.12 in986.1 mb 0.00 in0.0 mm 0.00 in0.0 mm 0.00 in0.0 mm
03:19 PM 99.4°F37.4°C 56.2°F13.4°C 24% 4.0 mph WSW6.4 kmh WSW 7.9 mph12.7 kmh 29.12 in986.1 mb 0.00 in0.0 mm 0.00 in0.0 mm 0.00 in0.0 mm
03:14 PM 99.4°F37.4°C 56.2°F13.4°C 24% 4.0 mph W6.4 kmh W 6.7 mph10.8 kmh 29.12 in986.1 mb 0.00 in0.0 mm 0.00 in0.0 mm 0.00 in0.0 mm
03:09 PM 99.7°F37.6°C 56.4°F13.6°C 24% 5.1 mph WSW8.2 kmh WSW 8.4 mph13.5 kmh 29.12 in986.1 mb 0.00 in0.0 mm 0.00 in0.0 mm 0.00 in0.0 mm
03:04 PM 99.3°F37.4°C 56.1°F13.4°C 24% 4.5 mph WSW7.2 kmh WSW 8.9 mph14.3 kmh 29.12 in986.1 mb 0.00 in0.0 mm 0.00 in0.0 mm 0.00 in0.0 mm
02:59 PM 99.6°F37.6°C 56.3°F13.5°C 24% 5.7 mph WSW9.2 kmh WSW 8.7 mph14.0 kmh 29.12 in986.1 mb 0.00 in0.0 mm 0.00 in0.0 mm 0.00 in0.0 mm
02:54 PM 100.3°F37.9°C 56.9°F13.8°C 24% 4.5 mph WSW7.2 kmh WSW 8.6 mph13.8 kmh 29.13 in986.5 mb 0.00 in0.0 mm 0.00 in0.0 mm 0.00 in0.0 mm
02:49 PM 101.3°F38.5°C 56.6°F13.7°C 23% 5.1 mph WSW8.2 kmh WSW 9.9 mph15.9 kmh 29.13 in986.5 mb 0.00 in0.0 mm 0.00 in0.0 mm 0.00 in0.0 mm
02:44 PM 102.2°F39.0°C 57.3°F14.1°C 23% 4.4 mph WSW7.1 kmh WSW 7.7 mph12.4 kmh 29.13 in986.5 mb 0.00 in0.0 mm 0.00 in0.0 mm 0.00 in0.0 mm
02:39 PM 102.4°F39.1°C 57.5°F14.2°C 23% 3.3 mph SSW5.3 kmh SSW 4.8 mph7.7 kmh 29.13 in986.5 mb 0.00 in0.0 mm 0.00 in0.0 mm 0.00 in0.0 mm
02:34 PM 102.4°F39.1°C 57.5°F14.2°C 23% 2.4 mph S3.9 kmh S 3.8 mph6.1 kmh 29.13 in986.5 mb 0.00 in0.0 mm 0.00 in0.0 mm 0.00 in0.0 mm
02:29 PM 102.3°F39.1°C 58.6°F14.8°C 24% 2.2 mph SSE3.5 kmh SSE 3.5 mph5.6 kmh 29.13 in986.5 mb 0.00 in0.0 mm 0.00 in0.0 mm 0.00 in0.0 mm
02:24 PM 101.8°F38.8°C 59.3°F15.2°C 25% 1.2 mph SW1.9 kmh SW 2.3 mph3.7 kmh 29.13 in986.5 mb 0.00 in0.0 mm 0.00 in0.0 mm 0.00 in0.0 mm
02:19 PM 101.4°F38.6°C 59.0°F15.0°C 25% 2.5 mph SSW4.0 kmh SSW 3.0 mph4.8 kmh 29.14 in986.8 mb 0.00 in0.0 mm 0.00 in0.0 mm 0.00 in0.0 mm
02:14 PM 101.0°F38.3°C 59.7°F15.4°C 26% 2.3 mph SSE3.7 kmh SSE 3.2 mph5.1 kmh 29.14 in986.8 mb 0.00 in0.0 mm 0.00 in0.0 mm 0.00 in0.0 mm
02:09 PM 100.7°F38.2°C 59.5°F15.3°C 26% 2.5 mph S4.0 kmh S 3.3 mph5.3 kmh 29.14 in986.8 mb 0.00 in0.0 mm 0.00 in0.0 mm 0.00 in0.0 mm
02:04 PM 100.7°F38.2°C 59.5°F15.3°C 26% 2.3 mph S3.7 kmh S 4.1 mph6.6 kmh 29.14 in986.8 mb 0.00 in0.0 mm 0.00 in0.0 mm 0.00 in0.0 mm
01:59 PM 100.4°F38.0°C 58.1°F14.5°C 25% 2.2 mph SSW3.5 kmh SSW 3.3 mph5.3 kmh 29.14 in986.8 mb 0.00 in0.0 mm 0.00 in0.0 mm 0.00 in0.0 mm
01:54 PM 100.2°F37.9°C 56.8°F13.8°C 24% 2.8 mph S4.5 kmh S 3.9 mph6.3 kmh 29.14 in986.8 mb 0.00 in0.0 mm 0.00 in0.0 mm 0.00 in0.0 mm
01:49 PM 100.2°F37.9°C 56.8°F13.8°C 24% 3.0 mph SSW4.8 kmh SSW 3.9 mph6.3 kmh 29.14 in986.8 mb 0.00 in0.0 mm 0.00 in0.0 mm 0.00 in0.0 mm
01:44 PM 100.2°F37.9°C 56.8°F13.8°C 24% 2.2 mph SSE3.5 kmh SSE 3.9 mph6.3 kmh 29.14 in986.8 mb 0.00 in0.0 mm 0.00 in0.0 mm 0.00 in0.0 mm
01:39 PM 100.0°F37.8°C 55.5°F13.1°C 23% 2.6 mph WSW4.2 kmh WSW 3.8 mph6.1 kmh 29.15 in987.1 mb 0.00 in0.0 mm 0.00 in0.0 mm 0.00 in0.0 mm
01:34 PM 99.4°F37.4°C 55.0°F12.8°C 23% 1.7 mph SW2.7 kmh SW 2.8 mph4.5 kmh 29.15 in987.1 mb 0.00 in0.0 mm 0.00 in0.0 mm 0.00 in0.0 mm
01:29 PM 98.8°F37.1°C 54.5°F12.5°C 23% 1.7 mph WSW2.7 kmh WSW 3.6 mph5.8 kmh 29.15 in987.1 mb 0.00 in0.0 mm 0.00 in0.0 mm 0.00 in0.0 mm
01:24 PM 98.5°F36.9°C 54.2°F12.3°C 23% 2.4 mph S3.9 kmh S 4.1 mph6.6 kmh 29.15 in987.1 mb 0.00 in0.0 mm 0.00 in0.0 mm 0.00 in0.0 mm
01:19 PM 98.8°F37.1°C 54.5°F12.5°C 23% 2.7 mph SSE4.3 kmh SSE 4.0 mph6.4 kmh 29.15 in987.1 mb 0.00 in0.0 mm 0.00 in0.0 mm 0.00 in0.0 mm
01:14 PM 98.5°F36.9°C 53.0°F11.7°C 22% 2.1 mph SSW3.4 kmh SSW 2.8 mph4.5 kmh 29.15 in987.1 mb 0.00 in0.0 mm 0.00 in0.0 mm 0.00 in0.0 mm
01:09 PM 97.8°F36.6°C 53.7°F12.1°C 23% 1.3 mph SSW2.1 kmh SSW 2.7 mph4.3 kmh 29.16 in987.5 mb 0.00 in0.0 mm 0.00 in0.0 mm 0.00 in0.0 mm
01:04 PM 97.2°F36.2°C 53.2°F11.8°C 23% 1.5 mph SW2.4 kmh SW 2.6 mph4.2 kmh 29.16 in987.5 mb 0.00 in0.0 mm 0.00 in0.0 mm 0.00 in0.0 mm
12:59 PM 97.0°F36.1°C 54.2°F12.3°C 24% 2.4 mph SSW3.9 kmh SSW 3.6 mph5.8 kmh 29.16 in987.5 mb 0.00 in0.0 mm 0.00 in0.0 mm 0.00 in0.0 mm
12:54 PM 97.0°F36.1°C 53.0°F11.7°C 23% 2.4 mph SE3.9 kmh SE 4.4 mph7.1 kmh 29.16 in987.5 mb 0.00 in0.0 mm 0.00 in0.0 mm 0.00 in0.0 mm
12:49 PM 96.9°F36.1°C 54.1°F12.3°C 24% 2.2 mph SSW3.5 kmh SSW 3.1 mph5.0 kmh 29.16 in987.5 mb 0.00 in0.0 mm 0.00 in0.0 mm 0.00 in0.0 mm
12:44 PM 96.8°F36.0°C 52.8°F11.6°C 23% 1.6 mph SSW2.6 kmh SSW 3.2 mph5.1 kmh 29.16 in987.5 mb 0.00 in0.0 mm 0.00 in0.0 mm 0.00 in0.0 mm
12:39 PM 96.2°F35.7°C 53.5°F11.9°C 24% 1.7 mph SSE2.7 kmh SSE 3.0 mph4.8 kmh 29.17 in987.8 mb 0.00 in0.0 mm 0.00 in0.0 mm 0.00 in0.0 mm
12:34 PM 95.6°F35.3°C 53.0°F11.7°C 24% 1.0 mph SE1.6 kmh SE 2.6 mph4.2 kmh 29.17 in987.8 mb 0.00 in0.0 mm 0.00 in0.0 mm 0.00 in0.0 mm
12:29 PM 95.0°F35.0°C 52.5°F11.4°C 24% 1.3 mph WSW2.1 kmh WSW 2.8 mph4.5 kmh 29.17 in987.8 mb 0.00 in0.0 mm 0.00 in0.0 mm 0.00 in0.0 mm
12:24 PM 95.3°F35.2°C 52.7°F11.5°C 24% 0.8 mph SSE1.3 kmh SSE 2.0 mph3.2 kmh 29.17 in987.8 mb 0.00 in0.0 mm 0.00 in0.0 mm 0.00 in0.0 mm
12:19 PM 95.8°F35.4°C 54.3°F12.4°C 25% 1.7 mph SSW2.7 kmh SSW 2.5 mph4.0 kmh 29.17 in987.8 mb 0.00 in0.0 mm 0.00 in0.0 mm 0.00 in0.0 mm
12:14 PM 95.1°F35.1°C 52.6°F11.4°C 24% 1.0 mph SSW1.6 kmh SSW 2.1 mph3.4 kmh 29.17 in987.8 mb 0.00 in0.0 mm 0.00 in0.0 mm 0.00 in0.0 mm
12:09 PM 94.6°F34.8°C 54.3°F12.4°C 26% 1.1 mph SSW1.8 kmh SSW 1.9 mph3.1 kmh 29.18 in988.1 mb 0.00 in0.0 mm 0.00 in0.0 mm 0.00 in0.0 mm
12:04 PM 94.7°F34.8°C 54.4°F12.4°C 26% 1.6 mph SW2.6 kmh SW 2.5 mph4.0 kmh 29.18 in988.1 mb 0.00 in0.0 mm 0.00 in0.0 mm 0.00 in0.0 mm
11:59 AM 94.5°F34.7°C 54.3°F12.4°C 26% 1.9 mph SSW3.1 kmh SSW 2.8 mph4.5 kmh 29.18 in988.1 mb 0.00 in0.0 mm 0.00 in0.0 mm 0.00 in0.0 mm
11:54 AM 94.1°F34.5°C 52.9°F11.6°C 25% 1.5 mph SSW2.4 kmh SSW 2.3 mph3.7 kmh 29.18 in988.1 mb 0.00 in0.0 mm 0.00 in0.0 mm 0.00 in0.0 mm
11:49 AM 93.3°F34.1°C 53.3°F11.8°C 26% 1.3 mph SSW2.1 kmh SSW 2.1 mph3.4 kmh 29.18 in988.1 mb 0.00 in0.0 mm 0.00 in0.0 mm 0.00 in0.0 mm
11:44 AM 92.4°F33.6°C 53.5°F11.9°C 27% 0.9 mph SSW1.4 kmh SSW 1.7 mph2.7 kmh 29.18 in988.1 mb 0.00 in0.0 mm 0.00 in0.0 mm 0.00 in0.0 mm
11:39 AM 91.9°F33.3°C 51.0°F10.6°C 25% 1.0 mph S1.6 kmh S 2.4 mph3.9 kmh 29.18 in988.1 mb 0.00 in0.0 mm 0.00 in0.0 mm 0.00 in0.0 mm
11:34 AM 91.2°F32.9°C 51.5°F10.8°C 26% 0.8 mph SSW1.3 kmh SSW 1.8 mph2.9 kmh 29.19 in988.5 mb 0.00 in0.0 mm 0.00 in0.0 mm 0.00 in0.0 mm
11:29 AM 90.5°F32.5°C 51.9°F11.1°C 27% 0.6 mph SSW1.0 kmh SSW 2.0 mph3.2 kmh 29.19 in988.5 mb 0.00 in0.0 mm 0.00 in0.0 mm 0.00 in0.0 mm
11:24 AM 89.4°F31.9°C 52.9°F11.6°C 29% 1.0 mph SSW1.6 kmh SSW 1.9 mph3.1 kmh 29.19 in988.5 mb 0.00 in0.0 mm 0.00 in0.0 mm 0.00 in0.0 mm
11:19 AM 87.9°F31.1°C 51.6°F10.9°C 29% 1.2 mph S1.9 kmh S 2.2 mph3.5 kmh 29.19 in988.5 mb 0.00 in0.0 mm 0.00 in0.0 mm 0.00 in0.0 mm
11:14 AM 86.7°F30.4°C 50.6°F10.3°C 29% 1.3 mph SW2.1 kmh SW 2.6 mph4.2 kmh 29.19 in988.5 mb 0.00 in0.0 mm 0.00 in0.0 mm 0.00 in0.0 mm
11:09 AM 85.8°F29.9°C 48.9°F9.4°C 28% 1.6 mph SW2.6 kmh SW 2.6 mph4.2 kmh 29.19 in988.5 mb 0.00 in0.0 mm 0.00 in0.0 mm 0.00 in0.0 mm
11:04 AM 85.3°F29.6°C 48.5°F9.2°C 28% 1.9 mph SSW3.1 kmh SSW 2.9 mph4.7 kmh 29.19 in988.5 mb 0.00 in0.0 mm 0.00 in0.0 mm 0.00 in0.0 mm
10:59 AM 85.2°F29.6°C 50.2°F10.1°C 30% 1.6 mph SW2.6 kmh SW 3.3 mph5.3 kmh 29.19 in988.5 mb 0.00 in0.0 mm 0.00 in0.0 mm 0.00 in0.0 mm
10:54 AM 85.5°F29.7°C 51.4°F10.8°C 31% 1.4 mph SSW2.3 kmh SSW 2.4 mph3.9 kmh 29.19 in988.5 mb 0.00 in0.0 mm 0.00 in0.0 mm 0.00 in0.0 mm
10:49 AM 84.6°F29.2°C 51.5°F10.8°C 32% 0.8 mph SSW1.3 kmh SSW 2.4 mph3.9 kmh 29.19 in988.5 mb 0.00 in0.0 mm 0.00 in0.0 mm 0.00 in0.0 mm
10:44 AM 83.8°F28.8°C 51.6°F10.9°C 33% 0.4 mph SSW0.6 kmh SSW 0.9 mph1.4 kmh 29.19 in988.5 mb 0.00 in0.0 mm 0.00 in0.0 mm 0.00 in0.0 mm
10:39 AM 84.0°F28.9°C 52.6°F11.4°C 34% 1.1 mph SSW1.8 kmh SSW 2.3 mph3.7 kmh 29.20 in988.8 mb 0.00 in0.0 mm 0.00 in0.0 mm 0.00 in0.0 mm
10:34 AM 83.4°F28.6°C 52.8°F11.6°C 35% 1.1 mph SSW1.8 kmh SSW 2.0 mph3.2 kmh 29.20 in988.8 mb 0.00 in0.0 mm 0.00 in0.0 mm 0.00 in0.0 mm
10:29 AM 82.4°F28.0°C 52.0°F11.1°C 35% 0.6 mph SSW1.0 kmh SSW 1.8 mph2.9 kmh 29.20 in988.8 mb 0.00 in0.0 mm 0.00 in0.0 mm 0.00 in0.0 mm
10:24 AM 81.6°F27.6°C 52.0°F11.1°C 36% 1.2 mph SW1.9 kmh SW 2.1 mph3.4 kmh 29.20 in988.8 mb 0.00 in0.0 mm 0.00 in0.0 mm 0.00 in0.0 mm
10:19 AM 80.6°F27.0°C 51.9°F11.1°C 37% 1.2 mph S1.9 kmh S 1.8 mph2.9 kmh 29.20 in988.8 mb 0.00 in0.0 mm 0.00 in0.0 mm 0.00 in0.0 mm
10:14 AM 79.9°F26.6°C 52.0°F11.1°C 38% 1.6 mph SSW2.6 kmh SSW 2.5 mph4.0 kmh 29.20 in988.8 mb 0.00 in0.0 mm 0.00 in0.0 mm 0.00 in0.0 mm
10:09 AM 80.4°F26.9°C 52.4°F11.3°C 38% 1.8 mph SSW2.9 kmh SSW 2.5 mph4.0 kmh 29.20 in988.8 mb 0.00 in0.0 mm 0.00 in0.0 mm 0.00 in0.0 mm
10:04 AM 80.7°F27.1°C 52.7°F11.5°C 38% 0.6 mph SSW1.0 kmh SSW 1.3 mph2.1 kmh 29.20 in988.8 mb 0.00 in0.0 mm 0.00 in0.0 mm 0.00 in0.0 mm
09:59 AM 80.2°F26.8°C 53.7°F12.1°C 40% 0.8 mph SSW1.3 kmh SSW 2.0 mph3.2 kmh 29.20 in988.8 mb 0.00 in0.0 mm 0.00 in0.0 mm 0.00 in0.0 mm
09:54 AM 79.7°F26.5°C 53.9°F12.2°C 41% 1.1 mph S1.8 kmh S 2.4 mph3.9 kmh 29.20 in988.8 mb 0.00 in0.0 mm 0.00 in0.0 mm 0.00 in0.0 mm
09:49 AM 78.4°F25.8°C 53.4°F11.9°C 42% 1.1 mph S1.8 kmh S 2.2 mph3.5 kmh 29.20 in988.8 mb 0.00 in0.0 mm 0.00 in0.0 mm 0.00 in0.0 mm
09:44 AM 77.2°F25.1°C 53.6°F12.0°C 44% 0.4 mph SSE0.6 kmh SSE 1.4 mph2.3 kmh 29.20 in988.8 mb 0.00 in0.0 mm 0.00 in0.0 mm 0.00 in0.0 mm
09:39 AM 76.2°F24.6°C 53.9°F12.2°C 46% 1.1 mph SW1.8 kmh SW 2.0 mph3.2 kmh 29.20 in988.8 mb 0.00 in0.0 mm 0.00 in0.0 mm 0.00 in0.0 mm
09:34 AM 75.4°F24.1°C 53.8°F12.1°C 47% 0.4 mph SSE0.6 kmh SSE 1.4 mph2.3 kmh 29.21 in989.2 mb 0.00 in0.0 mm 0.00 in0.0 mm 0.00 in0.0 mm
09:29 AM 75.5°F24.2°C 53.8°F12.1°C 47% 1.8 mph SW2.9 kmh SW 2.7 mph4.3 kmh 29.21 in989.2 mb 0.00 in0.0 mm 0.00 in0.0 mm 0.00 in0.0 mm
09:24 AM 75.2°F24.0°C 54.1°F12.3°C 48% 0.9 mph S1.4 kmh S 2.2 mph3.5 kmh 29.21 in989.2 mb 0.00 in0.0 mm 0.00 in0.0 mm 0.00 in0.0 mm
09:19 AM 73.5°F23.1°C 54.2°F12.3°C 51% 0.5 mph SE0.8 kmh SE 1.3 mph2.1 kmh 29.21 in989.2 mb 0.00 in0.0 mm 0.00 in0.0 mm 0.00 in0.0 mm
09:14 AM 72.0°F22.2°C 53.9°F12.2°C 53% 0.3 mph SSW0.5 kmh SSW 0.7 mph1.1 kmh 29.21 in989.2 mb 0.00 in0.0 mm 0.00 in0.0 mm 0.00 in0.0 mm
09:09 AM 71.1°F21.7°C 53.6°F12.0°C 54% 1.1 mph SSW1.8 kmh SSW 2.1 mph3.4 kmh 29.21 in989.2 mb 0.00 in0.0 mm 0.00 in0.0 mm 0.00 in0.0 mm
09:04 AM 71.4°F21.9°C 53.9°F12.2°C 54% 1.7 mph SW2.7 kmh SW 2.5 mph4.0 kmh 29.22 in989.5 mb 0.00 in0.0 mm 0.00 in0.0 mm 0.00 in0.0 mm
08:59 AM 71.5°F21.9°C 54.0°F12.2°C 54% 1.2 mph SW1.9 kmh SW 2.2 mph3.5 kmh 29.22 in989.5 mb 0.00 in0.0 mm 0.00 in0.0 mm 0.00 in0.0 mm
08:54 AM 71.1°F21.7°C 54.1°F12.3°C 55% 0.7 mph S1.1 kmh S 2.2 mph3.5 kmh 29.22 in989.5 mb 0.00 in0.0 mm 0.00 in0.0 mm 0.00 in0.0 mm
08:49 AM 70.8°F21.6°C 54.3°F12.4°C 56% 0.7 mph SSW1.1 kmh SSW 1.8 mph2.9 kmh 29.22 in989.5 mb 0.00 in0.0 mm 0.00 in0.0 mm 0.00 in0.0 mm
08:44 AM 70.3°F21.3°C 54.3°F12.4°C 57% 0.9 mph SSW1.4 kmh SSW 1.9 mph3.1 kmh 29.22 in989.5 mb 0.00 in0.0 mm 0.00 in0.0 mm 0.00 in0.0 mm
08:39 AM 69.0°F20.6°C 54.5°F12.5°C 60% 1.1 mph SSE1.8 kmh SSE 1.7 mph2.7 kmh 29.22 in989.5 mb 0.00 in0.0 mm 0.00 in0.0 mm 0.00 in0.0 mm
08:34 AM 67.7°F19.8°C 53.8°F12.1°C 61% 1.7 mph SSE2.7 kmh SSE 2.6 mph4.2 kmh 29.22 in989.5 mb 0.00 in0.0 mm 0.00 in0.0 mm 0.00 in0.0 mm
08:29 AM 67.5°F19.7°C 54.0°F12.2°C 62% 2.0 mph SW3.2 kmh SW 2.4 mph3.9 kmh 29.22 in989.5 mb 0.00 in0.0 mm 0.00 in0.0 mm 0.00 in0.0 mm
08:24 AM 67.4°F19.7°C 54.4°F12.4°C 63% 0.9 mph SSW1.4 kmh SSW 1.7 mph2.7 kmh 29.21 in989.2 mb 0.00 in0.0 mm 0.00 in0.0 mm 0.00 in0.0 mm
08:19 AM 67.0°F19.4°C 54.4°F12.4°C 64% 1.0 mph SSW1.6 kmh SSW 2.3 mph3.7 kmh 29.22 in989.5 mb 0.00 in0.0 mm 0.00 in0.0 mm 0.00 in0.0 mm
08:14 AM 66.5°F19.2°C 54.8°F12.7°C 66% 0.2 mph SSW0.3 kmh SSW 1.0 mph1.6 kmh 29.21 in989.2 mb 0.00 in0.0 mm 0.00 in0.0 mm 0.00 in0.0 mm
08:09 AM 65.9°F18.8°C 54.6°F12.6°C 67% 0.4 mph SSW0.6 kmh SSW 0.7 mph1.1 kmh 29.21 in989.2 mb 0.00 in0.0 mm 0.00 in0.0 mm 0.00 in0.0 mm
08:04 AM 65.1°F18.4°C 54.7°F12.6°C 69% 0.3 mph SSE0.5 kmh SSE 0.7 mph1.1 kmh 29.21 in989.2 mb 0.00 in0.0 mm 0.00 in0.0 mm 0.00 in0.0 mm
07:59 AM 64.3°F17.9°C 54.3°F12.4°C 70% Calm Calm -- 29.21 in989.2 mb 0.00 in0.0 mm 0.00 in0.0 mm 0.00 in0.0 mm
07:54 AM 64.0°F17.8°C 54.4°F12.4°C 71% Calm Calm -- 29.21 in989.2 mb 0.00 in0.0 mm 0.00 in0.0 mm 0.00 in0.0 mm
07:49 AM 63.7°F17.6°C 54.1°F12.3°C 71% Calm Calm -- 29.21 in989.2 mb 0.00 in0.0 mm 0.00 in0.0 mm 0.00 in0.0 mm
07:44 AM 63.5°F17.5°C 53.9°F12.2°C 71% Calm Calm -- 29.21 in989.2 mb 0.00 in0.0 mm 0.00 in0.0 mm 0.00 in0.0 mm
07:39 AM 63.1°F17.3°C 53.9°F12.2°C 72% Calm Calm -- 29.21 in989.2 mb 0.00 in0.0 mm 0.00 in0.0 mm 0.00 in0.0 mm
07:34 AM 62.5°F16.9°C 53.0°F11.7°C 71% Calm Calm 0.3 mph0.5 kmh 29.21 in989.2 mb 0.00 in0.0 mm 0.00 in0.0 mm 0.00 in0.0 mm
07:29 AM 61.8°F16.6°C 53.1°F11.7°C 73% Calm Calm -- 29.21 in989.2 mb 0.00 in0.0 mm 0.00 in0.0 mm 0.00 in0.0 mm
07:24 AM 61.0°F16.1°C 52.3°F11.3°C 73% Calm Calm -- 29.20 in988.8 mb 0.00 in0.0 mm 0.00 in0.0 mm 0.00 in0.0 mm
07:19 AM 60.4°F15.8°C 52.1°F11.2°C 74% Calm Calm -- 29.20 in988.8 mb 0.00 in0.0 mm 0.00 in0.0 mm 0.00 in0.0 mm
07:14 AM 59.9°F15.5°C 52.0°F11.1°C 75% Calm Calm -- 29.20 in988.8 mb 0.00 in0.0 mm 0.00 in0.0 mm 0.00 in0.0 mm
07:09 AM 59.6°F15.3°C 51.7°F10.9°C 75% Calm Calm -- 29.20 in988.8 mb 0.00 in0.0 mm 0.00 in0.0 mm 0.00 in0.0 mm
07:04 AM 59.5°F15.3°C 51.9°F11.1°C 76% Calm Calm -- 29.20 in988.8 mb 0.00 in0.0 mm 0.00 in0.0 mm 0.00 in0.0 mm
06:59 AM 59.3°F15.2°C 51.4°F10.8°C 75% Calm Calm -- 29.20 in988.8 mb 0.00 in0.0 mm 0.00 in0.0 mm 0.00 in0.0 mm
06:54 AM 59.3°F15.2°C 51.7°F10.9°C 76% Calm Calm -- 29.20 in988.8 mb 0.00 in0.0 mm 0.00 in0.0 mm 0.00 in0.0 mm
06:49 AM 59.3°F15.2°C 51.7°F10.9°C 76% Calm Calm -- 29.20 in988.8 mb 0.00 in0.0 mm 0.00 in0.0 mm 0.00 in0.0 mm
06:44 AM 59.2°F15.1°C 51.3°F10.7°C 75% Calm Calm -- 29.20 in988.8 mb 0.00 in0.0 mm 0.00 in0.0 mm 0.00 in0.0 mm
06:39 AM 59.2°F15.1°C 51.6°F10.9°C 76% Calm Calm -- 29.20 in988.8 mb 0.00 in0.0 mm 0.00 in0.0 mm 0.00 in0.0 mm
06:34 AM 59.4°F15.2°C 52.2°F11.2°C 77% Calm Calm -- 29.20 in988.8 mb 0.00 in0.0 mm 0.00 in0.0 mm 0.00 in0.0 mm
06:29 AM 59.6°F15.3°C 52.0°F11.1°C 76% Calm Calm -- 29.20 in988.8 mb 0.00 in0.0 mm 0.00 in0.0 mm 0.00 in0.0 mm
06:24 AM 59.7°F15.4°C 52.1°F11.2°C 76% Calm Calm -- 29.20 in988.8 mb 0.00 in0.0 mm 0.00 in0.0 mm 0.00 in0.0 mm
06:19 AM 59.7°F15.4°C 52.1°F11.2°C 76% Calm Calm -- 29.20 in988.8 mb 0.00 in0.0 mm 0.00 in0.0 mm 0.00 in0.0 mm
06:14 AM 59.7°F15.4°C 51.8°F11.0°C 75% Calm Calm -- 29.20 in988.8 mb 0.00 in0.0 mm 0.00 in0.0 mm 0.00 in0.0 mm
06:09 AM 60.0°F15.6°C 52.1°F11.2°C 75% Calm Calm -- 29.20 in988.8 mb 0.00 in0.0 mm 0.00 in0.0 mm 0.00 in0.0 mm
06:04 AM 60.2°F15.7°C 52.2°F11.2°C 75% Calm Calm -- 29.19 in988.5 mb 0.00 in0.0 mm 0.00 in0.0 mm 0.00 in0.0 mm
05:59 AM 60.3°F15.7°C 52.0°F11.1°C 74% Calm Calm -- 29.19 in988.5 mb 0.00 in0.0 mm 0.00 in0.0 mm 0.00 in0.0 mm
05:54 AM 60.6°F15.9°C 52.6°F11.4°C 75% Calm Calm -- 29.19 in988.5 mb 0.00 in0.0 mm 0.00 in0.0 mm 0.00 in0.0 mm
05:49 AM 60.8°F16.0°C 52.5°F11.4°C 74% Calm Calm -- 29.19 in988.5 mb 0.00 in0.0 mm 0.00 in0.0 mm 0.00 in0.0 mm
05:44 AM 61.0°F16.1°C 53.0°F11.7°C 75% Calm Calm -- 29.19 in988.5 mb 0.00 in0.0 mm 0.00 in0.0 mm 0.00 in0.0 mm
05:39 AM 61.1°F16.2°C 53.1°F11.7°C 75% Calm Calm -- 29.19 in988.5 mb 0.00 in0.0 mm 0.00 in0.0 mm 0.00 in0.0 mm
05:34 AM 61.1°F16.2°C 53.1°F11.7°C 75% 1.2 mph SE1.9 kmh SE 1.6 mph2.6 kmh 29.19 in988.5 mb 0.00 in0.0 mm 0.00 in0.0 mm 0.00 in0.0 mm
05:29 AM 61.2°F16.2°C 53.2°F11.8°C 75% 0.1 mph SSW0.2 kmh SSW 0.7 mph1.1 kmh 29.19 in988.5 mb 0.00 in0.0 mm 0.00 in0.0 mm 0.00 in0.0 mm
05:24 AM 61.2°F16.2°C 52.8°F11.6°C 74% Calm Calm -- 29.19 in988.5 mb 0.00 in0.0 mm 0.00 in0.0 mm 0.00 in0.0 mm
05:19 AM 61.2°F16.2°C 52.5°F11.4°C 73% 0.4 mph SW0.6 kmh SW 0.7 mph1.1 kmh 29.19 in988.5 mb 0.00 in0.0 mm 0.00 in0.0 mm 0.00 in0.0 mm
05:14 AM 61.1°F16.2°C 52.7°F11.5°C 74% Calm Calm -- 29.19 in988.5 mb 0.00 in0.0 mm 0.00 in0.0 mm 0.00 in0.0 mm
05:09 AM 60.9°F16.1°C 52.6°F11.4°C 74% Calm Calm -- 29.18 in988.1 mb 0.00 in0.0 mm 0.00 in0.0 mm 0.00 in0.0 mm
05:04 AM 60.8°F16.0°C 51.7°F10.9°C 72% Calm Calm -- 29.19 in988.5 mb 0.00 in0.0 mm 0.00 in0.0 mm 0.00 in0.0 mm
04:59 AM 60.7°F15.9°C 51.2°F10.7°C 71% Calm Calm -- 29.19 in988.5 mb 0.00 in0.0 mm 0.00 in0.0 mm 0.00 in0.0 mm
04:54 AM 60.8°F16.0°C 51.7°F10.9°C 72% Calm Calm -- 29.18 in988.1 mb 0.00 in0.0 mm 0.00 in0.0 mm 0.00 in0.0 mm
04:49 AM 61.1°F16.2°C 52.0°F11.1°C 72% Calm Calm -- 29.18 in988.1 mb 0.00 in0.0 mm 0.00 in0.0 mm 0.00 in0.0 mm
04:44 AM 61.2°F16.2°C 52.1°F11.2°C 72% Calm Calm -- 29.18 in988.1 mb 0.00 in0.0 mm 0.00 in0.0 mm 0.00 in0.0 mm
04:39 AM 61.4°F16.3°C 51.9°F11.1°C 71% Calm Calm -- 29.18 in988.1 mb 0.00 in0.0 mm 0.00 in0.0 mm 0.00 in0.0 mm
04:34 AM 61.7°F16.5°C 52.6°F11.4°C 72% Calm Calm -- 29.18 in988.1 mb 0.00 in0.0 mm 0.00 in0.0 mm 0.00 in0.0 mm
04:29 AM 62.0°F16.7°C 52.9°F11.6°C 72% Calm Calm -- 29.18 in988.1 mb 0.00 in0.0 mm 0.00 in0.0 mm 0.00 in0.0 mm
04:24 AM 62.1°F16.7°C 52.6°F11.4°C 71% Calm Calm -- 29.18 in988.1 mb 0.00 in0.0 mm 0.00 in0.0 mm 0.00 in0.0 mm
04:19 AM 62.0°F16.7°C 52.9°F11.6°C 72% 0.2 mph SW0.3 kmh SW 1.0 mph1.6 kmh 29.18 in988.1 mb 0.00 in0.0 mm 0.00 in0.0 mm 0.00 in0.0 mm
04:14 AM 61.8°F16.6°C 52.3°F11.3°C 71% Calm Calm -- 29.18 in988.1 mb 0.00 in0.0 mm 0.00 in0.0 mm 0.00 in0.0 mm
04:09 AM 62.0°F16.7°C 52.9°F11.6°C 72% Calm Calm -- 29.18 in988.1 mb 0.00 in0.0 mm 0.00 in0.0 mm 0.00 in0.0 mm
04:04 AM 62.1°F16.7°C 52.2°F11.2°C 70% Calm Calm -- 29.18 in988.1 mb 0.00 in0.0 mm 0.00 in0.0 mm 0.00 in0.0 mm
03:59 AM 62.1°F16.7°C 52.2°F11.2°C 70% Calm Calm -- 29.18 in988.1 mb 0.00 in0.0 mm 0.00 in0.0 mm 0.00 in0.0 mm
03:54 AM 61.9°F16.6°C 52.0°F11.1°C 70% Calm Calm -- 29.18 in988.1 mb 0.00 in0.0 mm 0.00 in0.0 mm 0.00 in0.0 mm
03:49 AM 61.7°F16.5°C 51.4°F10.8°C 69% 0.4 mph E0.6 kmh E 1.1 mph1.8 kmh 29.18 in988.1 mb 0.00 in0.0 mm 0.00 in0.0 mm 0.00 in0.0 mm
03:44 AM 61.7°F16.5°C 51.0°F10.6°C 68% Calm Calm 0.3 mph0.5 kmh 29.18 in988.1 mb 0.00 in0.0 mm 0.00 in0.0 mm 0.00 in0.0 mm
03:39 AM 61.6°F16.4°C 50.9°F10.5°C 68% 0.8 mph E1.3 kmh E 1.4 mph2.3 kmh 29.18 in988.1 mb 0.00 in0.0 mm 0.00 in0.0 mm 0.00 in0.0 mm
03:34 AM 61.5°F16.4°C 51.2°F10.7°C 69% 1.0 mph E1.6 kmh E 1.8 mph2.9 kmh 29.18 in988.1 mb 0.00 in0.0 mm 0.00 in0.0 mm 0.00 in0.0 mm
03:29 AM 61.5°F16.4°C 51.2°F10.7°C 69% Calm Calm -- 29.18 in988.1 mb 0.00 in0.0 mm 0.00 in0.0 mm 0.00 in0.0 mm
03:24 AM 61.8°F16.6°C 50.7°F10.4°C 67% Calm Calm -- 29.18 in988.1 mb 0.00 in0.0 mm 0.00 in0.0 mm 0.00 in0.0 mm
03:19 AM 62.1°F16.7°C 51.0°F10.6°C 67% Calm Calm -- 29.18 in988.1 mb 0.00 in0.0 mm 0.00 in0.0 mm 0.00 in0.0 mm
03:14 AM 62.4°F16.9°C 51.3°F10.7°C 67% Calm Calm -- 29.18 in988.1 mb 0.00 in0.0 mm 0.00 in0.0 mm 0.00 in0.0 mm
03:09 AM 62.6°F17.0°C 51.5°F10.8°C 67% 0.1 mph E0.2 kmh E 0.3 mph0.5 kmh 29.19 in988.5 mb 0.00 in0.0 mm 0.00 in0.0 mm 0.00 in0.0 mm
03:04 AM 62.6°F17.0°C 51.9°F11.1°C 68% 0.5 mph E0.8 kmh E 1.3 mph2.1 kmh 29.19 in988.5 mb 0.00 in0.0 mm 0.00 in0.0 mm 0.00 in0.0 mm
02:59 AM 62.7°F17.1°C 51.6°F10.9°C 67% Calm Calm -- 29.18 in988.1 mb 0.00 in0.0 mm 0.00 in0.0 mm 0.00 in0.0 mm
02:54 AM 62.7°F17.1°C 52.0°F11.1°C 68% Calm Calm -- 29.18 in988.1 mb 0.00 in0.0 mm 0.00 in0.0 mm 0.00 in0.0 mm
02:49 AM 62.7°F17.1°C 52.0°F11.1°C 68% Calm Calm -- 29.19 in988.5 mb 0.00 in0.0 mm 0.00 in0.0 mm 0.00 in0.0 mm
02:44 AM 62.7°F17.1°C 52.0°F11.1°C 68% Calm Calm -- 29.19 in988.5 mb 0.00 in0.0 mm 0.00 in0.0 mm 0.00 in0.0 mm
02:39 AM 62.7°F17.1°C 52.0°F11.1°C 68% Calm Calm -- 29.19 in988.5 mb 0.00 in0.0 mm 0.00 in0.0 mm 0.00 in0.0 mm
02:34 AM 63.0°F17.2°C 52.3°F11.3°C 68% Calm Calm -- 29.19 in988.5 mb 0.00 in0.0 mm 0.00 in0.0 mm 0.00 in0.0 mm
02:29 AM 63.1°F17.3°C 52.0°F11.1°C 67% Calm Calm -- 29.19 in988.5 mb 0.00 in0.0 mm 0.00 in0.0 mm 0.00 in0.0 mm
02:24 AM 63.2°F17.3°C 52.1°F11.2°C 67% Calm Calm -- 29.19 in988.5 mb 0.00 in0.0 mm 0.00 in0.0 mm 0.00 in0.0 mm
02:19 AM 63.4°F17.4°C 51.8°F11.0°C 66% Calm Calm -- 29.19 in988.5 mb 0.00 in0.0 mm 0.00 in0.0 mm 0.00 in0.0 mm
02:14 AM 63.5°F17.5°C 52.7°F11.5°C 68% 0.1 mph ESE0.2 kmh ESE 0.3 mph0.5 kmh 29.19 in988.5 mb 0.00 in0.0 mm 0.00 in0.0 mm 0.00 in0.0 mm
02:09 AM 63.6°F17.6°C 52.8°F11.6°C 68% Calm Calm -- 29.19 in988.5 mb 0.00 in0.0 mm 0.00 in0.0 mm 0.00 in0.0 mm
02:04 AM 63.7°F17.6°C 52.5°F11.4°C 67% 0.4 mph ESE0.6 kmh ESE 0.8 mph1.3 kmh 29.19 in988.5 mb 0.00 in0.0 mm 0.00 in0.0 mm 0.00 in0.0 mm
01:59 AM 63.7°F17.6°C 52.5°F11.4°C 67% 0.2 mph SE0.3 kmh SE 1.1 mph1.8 kmh 29.19 in988.5 mb 0.00 in0.0 mm 0.00 in0.0 mm 0.00 in0.0 mm
01:54 AM 63.8°F17.7°C 52.6°F11.4°C 67% Calm Calm -- 29.19 in988.5 mb 0.00 in0.0 mm 0.00 in0.0 mm 0.00 in0.0 mm
01:49 AM 64.1°F17.8°C 52.5°F11.4°C 66% 0.1 mph NE0.2 kmh NE 0.4 mph0.6 kmh 29.19 in988.5 mb 0.00 in0.0 mm 0.00 in0.0 mm 0.00 in0.0 mm
01:44 AM 64.2°F17.9°C 52.2°F11.2°C 65% Calm Calm 0.3 mph0.5 kmh 29.19 in988.5 mb 0.00 in0.0 mm 0.00 in0.0 mm 0.00 in0.0 mm
01:39 AM 64.3°F17.9°C 52.3°F11.3°C 65% 0.2 mph N0.3 kmh N 0.5 mph0.8 kmh 29.19 in988.5 mb 0.00 in0.0 mm 0.00 in0.0 mm 0.00 in0.0 mm
01:34 AM 64.4°F18.0°C 52.0°F11.1°C 64% 2.8 mph NE4.5 kmh NE 4.3 mph6.9 kmh 29.18 in988.1 mb 0.00 in0.0 mm 0.00 in0.0 mm 0.00 in0.0 mm
01:29 AM 64.3°F17.9°C 51.4°F10.8°C 63% 2.4 mph ENE3.9 kmh ENE 3.4 mph5.5 kmh 29.18 in988.1 mb 0.00 in0.0 mm 0.00 in0.0 mm 0.00 in0.0 mm
01:24 AM 64.5°F18.1°C 51.6°F10.9°C 63% 2.0 mph ESE3.2 kmh ESE 3.2 mph5.1 kmh 29.18 in988.1 mb 0.00 in0.0 mm 0.00 in0.0 mm 0.00 in0.0 mm
01:19 AM 64.5°F18.1°C 51.6°F10.9°C 63% Calm Calm -- 29.18 in988.1 mb 0.00 in0.0 mm 0.00 in0.0 mm 0.00 in0.0 mm
01:14 AM 64.7°F18.2°C 51.8°F11.0°C 63% Calm Calm -- 29.18 in988.1 mb 0.00 in0.0 mm 0.00 in0.0 mm 0.00 in0.0 mm
01:09 AM 65.0°F18.3°C 52.1°F11.2°C 63% 0.3 mph ESE0.5 kmh ESE 0.7 mph1.1 kmh 29.18 in988.1 mb 0.00 in0.0 mm 0.00 in0.0 mm 0.00 in0.0 mm
01:04 AM 64.9°F18.3°C 52.0°F11.1°C 63% 1.4 mph ESE2.3 kmh ESE 1.8 mph2.9 kmh 29.18 in988.1 mb 0.00 in0.0 mm 0.00 in0.0 mm 0.00 in0.0 mm
12:59 AM 64.8°F18.2°C 51.0°F10.6°C 61% 1.3 mph ESE2.1 kmh ESE 2.6 mph4.2 kmh 29.18 in988.1 mb 0.00 in0.0 mm 0.00 in0.0 mm 0.00 in0.0 mm
12:54 AM 65.1°F18.4°C 51.8°F11.0°C 62% Calm Calm -- 29.18 in988.1 mb 0.00 in0.0 mm 0.00 in0.0 mm 0.00 in0.0 mm
12:49 AM 65.4°F18.6°C 51.6°F10.9°C 61% Calm Calm -- 29.19 in988.5 mb 0.00 in0.0 mm 0.00 in0.0 mm 0.00 in0.0 mm
12:44 AM 65.7°F18.7°C 51.9°F11.1°C 61% Calm Calm -- 29.19 in988.5 mb 0.00 in0.0 mm 0.00 in0.0 mm 0.00 in0.0 mm
12:39 AM 65.9°F18.8°C 52.1°F11.2°C 61% 0.6 mph ESE1.0 kmh ESE 1.5 mph2.4 kmh 29.19 in988.5 mb 0.00 in0.0 mm 0.00 in0.0 mm 0.00 in0.0 mm
12:34 AM 66.0°F18.9°C 51.7°F10.9°C 60% 1.8 mph ESE2.9 kmh ESE 2.5 mph4.0 kmh 29.19 in988.5 mb 0.00 in0.0 mm 0.00 in0.0 mm 0.00 in0.0 mm
12:29 AM 66.1°F18.9°C 52.3°F11.3°C 61% 1.2 mph ESE1.9 kmh ESE 2.4 mph3.9 kmh 29.19 in988.5 mb 0.00 in0.0 mm 0.00 in0.0 mm 0.00 in0.0 mm
12:24 AM 66.2°F19.0°C 51.9°F11.1°C 60% 2.2 mph E3.5 kmh E 3.8 mph6.1 kmh 29.19 in988.5 mb 0.00 in0.0 mm 0.00 in0.0 mm 0.00 in0.0 mm
12:20 AM 66.4°F19.1°C 52.1°F11.2°C 60% 1.4 mph SE2.3 kmh SE 2.4 mph3.9 kmh 29.19 in988.5 mb 0.00 in0.0 mm 0.00 in0.0 mm 0.00 in0.0 mm
12:14 AM 66.5°F19.2°C 52.2°F11.2°C 60% 2.4 mph ESE3.9 kmh ESE 3.9 mph6.3 kmh 29.19 in988.5 mb 0.00 in0.0 mm 0.00 in0.0 mm 0.00 in0.0 mm
12:09 AM 66.7°F19.3°C 51.4°F10.8°C 58% 1.3 mph ENE2.1 kmh ENE 3.1 mph5.0 kmh 29.19 in988.5 mb 0.00 in0.0 mm 0.00 in0.0 mm 0.00 in0.0 mm
12:04 AM 66.8°F19.3°C 52.0°F11.1°C 59% 0.9 mph SE1.4 kmh SE 2.1 mph3.4 kmh 29.19 in988.5 mb 0.00 in0.0 mm 0.00 in0.0 mm 0.00 in0.0 mm